createdAt,value
2023-08-04T00:02:01.957Z,1.10
2023-08-04T00:04:33.650Z,1.25
2023-08-04T00:07:05.375Z,1.14
2023-08-04T00:09:36.899Z,0.98
2023-08-04T00:12:08.584Z,1.37
2023-08-04T00:14:40.312Z,1.04
2023-08-04T00:17:11.896Z,1.00
2023-08-04T00:19:44.215Z,1.08
2023-08-04T00:22:15.794Z,1.06
2023-08-04T00:24:47.269Z,1.02
2023-08-04T00:27:21.517Z,1.16
2023-08-04T00:29:53.039Z,1.06
2023-08-04T00:32:24.653Z,0.98
2023-08-04T00:34:56.303Z,0.97
2023-08-04T00:37:30.199Z,0.93
2023-08-04T00:40:01.842Z,0.92
2023-08-04T00:42:33.522Z,2.59
2023-08-04T00:45:06.477Z,2.31
2023-08-04T00:47:39.603Z,1.56
2023-08-04T00:50:11.391Z,1.52
2023-08-04T00:52:44.360Z,1.23
2023-08-04T00:55:18.285Z,1.27
2023-08-04T00:57:50.514Z,1.26
2023-08-04T01:00:23.362Z,1.35
2023-08-04T01:02:55.136Z,1.44
2023-08-04T01:05:37.601Z,1.22
2023-08-04T01:08:27.057Z,1.43
2023-08-04T01:11:13.128Z,1.46
2023-08-04T01:13:46.208Z,1.55
2023-08-04T01:16:18.434Z,1.38
2023-08-04T01:18:50.092Z,1.38
2023-08-04T01:21:21.715Z,1.42
2023-08-04T01:23:53.643Z,1.51
2023-08-04T01:26:25.616Z,1.42
2023-08-04T01:28:58.821Z,1.41
2023-08-04T01:31:30.816Z,1.40
2023-08-04T01:34:02.711Z,1.56
2023-08-04T01:36:34.866Z,1.23
2023-08-04T01:39:06.704Z,1.26
2023-08-04T01:41:38.914Z,1.38
2023-08-04T01:44:14.511Z,1.25
2023-08-04T01:46:46.340Z,1.25
2023-08-04T01:49:17.926Z,1.30
2023-08-04T01:51:49.583Z,1.14
2023-08-04T01:54:21.502Z,1.26
2023-08-04T01:56:53.287Z,1.15
2023-08-04T01:59:24.944Z,1.22
2023-08-04T02:01:56.506Z,1.24
2023-08-04T02:04:28.048Z,1.22
2023-08-04T02:06:59.600Z,1.17
2023-08-04T02:09:31.196Z,1.11
2023-08-04T02:12:02.752Z,0.85
2023-08-04T02:14:34.314Z,0.77
2023-08-04T02:17:05.868Z,0.81
2023-08-04T02:19:37.457Z,0.68
2023-08-04T02:22:09.021Z,0.71
2023-08-04T02:24:40.589Z,0.83
2023-08-04T02:27:13.844Z,0.74
2023-08-04T02:29:46.063Z,0.79
2023-08-04T02:32:17.566Z,0.60
2023-08-04T02:34:51.381Z,0.61
2023-08-04T02:37:23.018Z,0.60
2023-08-04T02:39:54.616Z,0.67
2023-08-04T02:42:26.102Z,0.63
2023-08-04T02:44:57.573Z,0.80
2023-08-04T02:47:29.151Z,0.60
2023-08-04T02:50:00.715Z,0.63
2023-08-04T02:52:32.278Z,0.70
2023-08-04T02:55:04.070Z,0.59
2023-08-04T02:57:35.718Z,0.72
2023-08-04T03:00:07.769Z,0.48
2023-08-04T03:02:39.324Z,0.56
2023-08-04T03:05:10.926Z,0.64
2023-08-04T03:07:42.575Z,0.53
2023-08-04T03:10:14.132Z,0.53
2023-08-04T03:12:45.622Z,0.55
2023-08-04T03:15:17.103Z,0.48
2023-08-04T03:17:51.412Z,0.63
2023-08-04T03:20:23.121Z,0.91
2023-08-04T03:22:54.813Z,0.49
2023-08-04T03:25:26.466Z,0.42
2023-08-04T03:27:58.174Z,0.35
2023-08-04T03:30:30.085Z,0.34
2023-08-04T03:33:01.720Z,0.31
2023-08-04T03:35:33.450Z,0.32
2023-08-04T03:38:05.260Z,0.45
2023-08-04T03:40:36.742Z,0.35
2023-08-04T03:43:08.364Z,0.32
2023-08-04T03:45:39.907Z,0.35
2023-08-04T03:48:11.435Z,0.38
2023-08-04T03:50:44.848Z,0.47
2023-08-04T03:53:16.330Z,0.55
2023-08-04T03:55:47.900Z,0.50
2023-08-04T03:58:19.571Z,0.41
2023-08-04T04:00:51.383Z,0.45
2023-08-04T04:03:22.956Z,0.39
2023-08-04T04:05:54.491Z,0.46
2023-08-04T04:08:25.993Z,0.43
2023-08-04T04:10:58.153Z,0.38
2023-08-04T04:13:30.034Z,0.37
2023-08-04T04:16:01.701Z,0.34
2023-08-04T04:18:33.244Z,0.41
2023-08-04T04:21:04.802Z,0.54
2023-08-04T04:23:36.467Z,0.45
2023-08-04T04:26:07.925Z,0.44
2023-08-04T04:28:39.566Z,0.62
2023-08-04T04:31:11.136Z,0.62
2023-08-04T04:33:42.733Z,0.49
2023-08-04T04:36:14.305Z,0.55
2023-08-04T04:38:45.857Z,0.58
2023-08-04T04:41:17.478Z,0.73
2023-08-04T04:43:49.209Z,0.53
2023-08-04T04:46:20.783Z,0.52
2023-08-04T04:48:52.397Z,0.55
2023-08-04T04:51:23.936Z,0.49
2023-08-04T04:53:55.602Z,0.51
2023-08-04T04:56:27.556Z,0.50
2023-08-04T04:58:59.103Z,0.53
2023-08-04T05:01:30.991Z,0.44
2023-08-04T05:04:02.627Z,0.62
2023-08-04T05:06:34.599Z,0.52
2023-08-04T05:09:06.370Z,0.63
2023-08-04T05:11:38.085Z,0.51
2023-08-04T05:14:09.694Z,0.63
2023-08-04T05:16:41.798Z,0.86
2023-08-04T05:19:13.420Z,0.54
2023-08-04T05:21:45.166Z,0.57
2023-08-04T05:24:16.931Z,0.58
2023-08-04T05:26:48.570Z,0.45
2023-08-04T05:29:20.210Z,0.47
2023-08-04T05:31:51.730Z,0.58
2023-08-04T05:34:23.279Z,0.43
2023-08-04T05:36:54.794Z,0.55
2023-08-04T05:39:26.391Z,0.60
2023-08-04T05:41:57.977Z,0.53
2023-08-04T05:44:30.110Z,0.56
2023-08-04T05:47:01.715Z,0.57
2023-08-04T05:49:33.641Z,0.58
2023-08-04T05:52:05.399Z,0.54
2023-08-04T05:54:36.992Z,0.59
2023-08-04T05:57:08.544Z,0.49
2023-08-04T05:59:40.070Z,0.49
2023-08-04T06:02:11.634Z,0.44
2023-08-04T06:04:43.245Z,0.39
2023-08-04T06:07:14.827Z,0.46
2023-08-04T06:09:47.290Z,0.45
2023-08-04T06:12:18.932Z,0.54
2023-08-04T06:14:51.062Z,0.56
2023-08-04T06:17:22.695Z,0.59
2023-08-04T06:19:54.235Z,0.38
2023-08-04T06:22:25.816Z,0.50
2023-08-04T06:24:57.404Z,0.49
2023-08-04T06:27:29.044Z,0.40
2023-08-04T06:30:00.942Z,0.45
2023-08-04T06:32:32.503Z,0.48
2023-08-04T06:35:04.316Z,0.39
2023-08-04T06:37:35.900Z,0.38
2023-08-04T06:40:07.959Z,0.40
2023-08-04T06:42:39.677Z,0.29
2023-08-04T06:45:11.837Z,0.35
2023-08-04T06:47:47.013Z,0.37
2023-08-04T06:50:19.051Z,0.37
2023-08-04T06:52:51.085Z,0.34
2023-08-04T06:55:23.124Z,0.39
2023-08-04T06:57:55.899Z,0.38
2023-08-04T07:00:27.937Z,0.33
2023-08-04T07:02:59.652Z,0.33
2023-08-04T07:05:31.385Z,0.42
2023-08-04T07:08:04.216Z,0.33
2023-08-04T07:10:35.917Z,0.26
2023-08-04T07:13:09.282Z,0.24
2023-08-04T07:15:42.666Z,0.30
2023-08-04T07:18:14.642Z,0.33
2023-08-04T07:20:46.285Z,0.34
2023-08-04T07:23:18.088Z,0.25
2023-08-04T07:25:56.545Z,0.38
2023-08-04T07:28:31.962Z,0.40
2023-08-04T07:31:11.304Z,0.44
2023-08-04T07:33:43.125Z,0.39
2023-08-04T07:36:14.834Z,0.36
2023-08-04T07:38:47.802Z,0.39
2023-08-04T07:41:21.611Z,0.46
2023-08-04T07:43:56.533Z,0.34
2023-08-04T07:46:30.947Z,0.30
2023-08-04T07:49:02.643Z,0.48
2023-08-04T07:51:34.348Z,0.43
2023-08-04T07:54:05.948Z,0.45
2023-08-04T07:56:37.529Z,0.41
2023-08-04T07:59:09.115Z,0.36
2023-08-04T08:01:40.722Z,0.49
2023-08-04T08:04:14.215Z,0.37
2023-08-04T08:06:47.112Z,0.44
2023-08-04T08:09:18.611Z,0.47
2023-08-04T08:11:51.090Z,0.36
2023-08-04T08:14:22.894Z,0.35
2023-08-04T08:16:55.693Z,0.38
2023-08-04T08:19:28.223Z,0.47
2023-08-04T08:21:59.680Z,0.45
2023-08-04T08:24:31.500Z,0.60
2023-08-04T08:27:03.637Z,0.42
2023-08-04T08:29:35.270Z,0.46
2023-08-04T08:32:07.639Z,0.43
2023-08-04T08:34:39.328Z,0.38
2023-08-04T08:37:11.166Z,0.33
2023-08-04T08:39:42.883Z,0.36
2023-08-04T08:42:15.835Z,0.28
2023-08-04T08:44:47.467Z,0.44
2023-08-04T08:47:21.289Z,0.41
2023-08-04T08:50:01.498Z,0.46
2023-08-04T08:52:39.146Z,0.36
2023-08-04T08:55:12.995Z,0.38
2023-08-04T08:57:45.617Z,0.45
2023-08-04T09:00:17.924Z,0.46
2023-08-04T09:02:49.889Z,0.41
2023-08-04T09:05:21.843Z,0.43
2023-08-04T09:07:54.681Z,0.37
2023-08-04T09:10:30.864Z,0.38
2023-08-04T09:13:03.061Z,0.34
2023-08-04T09:15:53.879Z,0.41
2023-08-04T09:18:32.112Z,0.34
2023-08-04T09:21:09.775Z,0.42
2023-08-04T09:23:50.835Z,0.45
2023-08-04T09:26:22.930Z,0.50
2023-08-04T09:29:06.285Z,0.41
2023-08-04T09:31:43.009Z,0.43
2023-08-04T09:34:14.828Z,0.44
2023-08-04T09:36:49.104Z,0.38
2023-08-04T09:39:20.881Z,0.40
2023-08-04T09:57:57.078Z,0.43
2023-08-04T10:01:22.682Z,0.35
2023-08-04T10:04:03.453Z,0.79
2023-08-04T10:07:13.080Z,0.46
2023-08-04T10:10:16.754Z,0.49
2023-08-04T10:13:40.982Z,0.41
2023-08-04T10:16:47.860Z,0.48
2023-08-04T10:19:21.617Z,0.43
2023-08-04T10:22:04.481Z,0.36
2023-08-04T10:24:39.028Z,0.28
2023-08-04T10:27:19.143Z,0.27
2023-08-04T10:30:14.075Z,0.29
2023-08-04T10:32:46.116Z,0.35
2023-08-04T10:35:20.403Z,0.39
2023-08-04T10:37:54.321Z,0.30
2023-08-04T10:40:29.968Z,0.26
2023-08-04T10:43:09.103Z,0.34
2023-08-04T10:45:55.924Z,0.25
2023-08-04T10:48:27.660Z,0.26
2023-08-04T10:50:59.666Z,0.24
2023-08-04T10:53:31.410Z,0.18
2023-08-04T10:56:07.208Z,0.25
2023-08-04T10:58:39.380Z,0.43
2023-08-04T11:01:17.236Z,0.26
2023-08-04T11:03:48.978Z,0.23
2023-08-04T11:06:20.749Z,0.31
2023-08-04T11:08:52.962Z,0.23
2023-08-04T11:11:24.719Z,0.32
2023-08-04T11:13:57.454Z,0.21
2023-08-04T11:16:29.104Z,0.26
2023-08-04T11:19:00.643Z,0.24
2023-08-04T11:21:32.253Z,0.17
2023-08-04T11:24:04.182Z,0.14
2023-08-04T11:26:36.482Z,0.23
2023-08-04T11:29:08.094Z,0.27
2023-08-04T11:31:42.278Z,0.21
2023-08-04T11:34:14.961Z,0.25
2023-08-04T11:36:46.555Z,0.27
2023-08-04T11:39:18.098Z,0.18
2023-08-04T11:41:49.881Z,0.23
2023-08-04T11:44:23.220Z,0.28
2023-08-04T11:46:55.083Z,0.22
2023-08-04T11:49:29.689Z,0.18
2023-08-04T11:52:01.266Z,0.27
2023-08-04T11:54:32.848Z,0.28
2023-08-04T11:57:04.876Z,0.28
2023-08-04T11:59:47.176Z,0.18
2023-08-04T12:02:19.280Z,0.26
2023-08-04T12:05:09.553Z,0.23
2023-08-04T12:07:41.509Z,0.21
2023-08-04T12:10:13.412Z,0.25
2023-08-04T12:12:45.533Z,0.28
2023-08-04T12:15:17.516Z,0.25
2023-08-04T12:17:49.460Z,0.24
2023-08-04T12:20:21.265Z,0.41
2023-08-04T12:22:53.097Z,0.55
2023-08-04T12:25:24.680Z,0.34
2023-08-04T12:27:56.341Z,0.30
2023-08-04T12:30:31.072Z,0.50
2023-08-04T12:33:02.721Z,0.30
2023-08-04T12:35:34.398Z,0.33
2023-08-04T12:38:06.023Z,0.20
2023-08-04T12:40:37.691Z,0.25
2023-08-04T12:43:09.279Z,0.16
2023-08-04T12:45:40.876Z,0.20
2023-08-04T12:48:12.549Z,0.25
2023-08-04T12:50:44.205Z,0.24
2023-08-04T12:53:16.015Z,0.28
2023-08-04T12:55:49.355Z,0.30
2023-08-04T12:58:20.925Z,0.29
2023-08-04T13:00:52.589Z,0.38
2023-08-04T13:03:24.457Z,0.34
2023-08-04T13:05:56.311Z,0.25
2023-08-04T13:08:27.893Z,0.35
2023-08-04T13:11:00.623Z,0.29
2023-08-04T13:13:32.246Z,0.14
2023-08-04T13:16:03.964Z,0.14
2023-08-04T13:18:35.593Z,0.13
2023-08-04T13:21:07.166Z,0.19
2023-08-04T13:23:39.084Z,0.19
2023-08-04T13:26:10.873Z,0.11
2023-08-04T13:28:43.617Z,0.09
2023-08-04T13:31:15.475Z,0.21
2023-08-04T13:33:47.200Z,0.15
2023-08-04T13:36:18.944Z,0.18
2023-08-04T13:38:50.837Z,0.17
2023-08-04T13:41:22.374Z,0.14
2023-08-04T13:43:53.995Z,0.24
2023-08-04T13:46:25.803Z,0.16
2023-08-04T13:48:57.387Z,0.22
2023-08-04T13:51:29.369Z,0.20
2023-08-04T13:54:01.089Z,0.14
2023-08-04T13:56:33.811Z,0.22
2023-08-04T13:59:05.424Z,0.18
2023-08-04T14:01:37.214Z,0.19
2023-08-04T14:04:09.013Z,0.14
2023-08-04T14:06:40.581Z,0.18
2023-08-04T14:09:14.604Z,0.18
2023-08-04T14:11:46.324Z,0.12
2023-08-04T14:14:18.316Z,0.18
2023-08-04T14:16:49.967Z,0.16
2023-08-04T14:19:21.558Z,0.24
2023-08-04T14:21:53.127Z,0.16
2023-08-04T14:24:24.741Z,0.17
2023-08-04T14:26:56.301Z,0.29
2023-08-04T14:29:27.854Z,0.27
2023-08-04T14:31:59.484Z,0.28
2023-08-04T14:34:32.505Z,0.32
2023-08-04T14:37:05.450Z,0.35
2023-08-04T14:39:37.112Z,0.35
2023-08-04T14:42:08.682Z,0.31
2023-08-04T14:44:40.373Z,0.22
2023-08-04T14:47:12.073Z,0.14
2023-08-04T14:49:43.906Z,0.26
2023-08-04T14:52:15.715Z,0.28
2023-08-04T14:54:47.337Z,0.26
2023-08-04T14:57:18.832Z,0.40
2023-08-04T14:59:50.322Z,0.32
2023-08-04T15:02:21.948Z,0.27
2023-08-04T15:04:53.873Z,0.26
2023-08-04T15:07:27.219Z,0.35
2023-08-04T15:10:05.455Z,0.34
2023-08-04T15:12:38.161Z,0.51
2023-08-04T15:15:10.332Z,0.53
2023-08-04T15:17:42.046Z,0.66
2023-08-04T15:20:13.892Z,0.63
2023-08-04T15:22:46.113Z,0.71
2023-08-04T15:25:18.426Z,0.89
2023-08-04T15:27:54.085Z,0.85
2023-08-04T15:30:38.301Z,0.77
2023-08-04T15:33:20.503Z,0.83
2023-08-04T15:36:07.308Z,0.90
2023-08-04T15:38:39.233Z,0.87
2023-08-04T15:41:11.016Z,0.75
2023-08-04T15:43:42.785Z,0.70
2023-08-04T15:46:14.909Z,0.84
2023-08-04T15:48:46.800Z,0.93
2023-08-04T15:51:20.087Z,0.77
2023-08-04T15:53:52.168Z,0.93
2023-08-04T15:56:23.745Z,0.84
2023-08-04T15:58:55.415Z,0.83
2023-08-04T16:01:27.109Z,1.02
2023-08-04T16:03:58.856Z,1.01
2023-08-04T16:06:30.473Z,0.82
2023-08-04T16:09:01.991Z,1.04
2023-08-04T16:11:33.561Z,0.88
2023-08-04T16:14:05.178Z,1.04
2023-08-04T16:16:36.874Z,0.90
2023-08-04T16:19:08.562Z,0.92
2023-08-04T16:21:40.260Z,0.91
2023-08-04T16:24:11.897Z,0.95
2023-08-04T16:26:43.434Z,1.33
2023-08-04T16:29:14.983Z,1.19
2023-08-04T16:31:46.654Z,1.26
2023-08-04T16:34:18.175Z,1.37
2023-08-04T16:36:50.060Z,1.33
2023-08-04T16:39:22.119Z,1.62
2023-08-04T16:41:53.660Z,1.65
2023-08-04T16:44:25.262Z,1.57
2023-08-04T16:46:56.775Z,1.56
2023-08-04T16:49:30.753Z,1.71
2023-08-04T16:52:02.292Z,1.56
2023-08-04T16:54:33.921Z,1.59
2023-08-04T16:57:05.793Z,1.59
2023-08-04T16:59:37.343Z,1.64
2023-08-04T17:02:08.840Z,1.62
2023-08-04T17:04:40.792Z,1.42
2023-08-04T17:07:12.373Z,1.46
2023-08-04T17:09:44.278Z,1.47
2023-08-04T17:12:15.925Z,1.62
2023-08-04T17:14:51.321Z,1.71
2023-08-04T17:17:23.395Z,1.66
2023-08-04T17:19:56.895Z,1.58
2023-08-04T17:22:32.057Z,1.55
2023-08-04T17:25:05.285Z,1.49
2023-08-04T17:27:37.230Z,1.41
2023-08-04T17:30:09.952Z,1.29
2023-08-04T17:32:41.828Z,1.21
2023-08-04T17:35:13.425Z,1.17
2023-08-04T17:37:45.734Z,1.37
2023-08-04T17:40:17.358Z,1.47
2023-08-04T17:42:49.036Z,1.72
2023-08-04T17:45:23.606Z,1.76
2023-08-04T17:47:55.425Z,1.70
2023-08-04T17:50:27.230Z,1.73
2023-08-04T17:53:00.014Z,1.87
2023-08-04T17:55:37.564Z,1.67
2023-08-04T17:58:09.147Z,1.59
2023-08-04T18:00:41.577Z,1.81
2023-08-04T18:03:16.135Z,1.77
2023-08-04T18:05:48.731Z,1.93
2023-08-04T18:08:20.985Z,1.73
2023-08-04T18:10:52.494Z,1.91
2023-08-04T18:13:24.138Z,1.95
2023-08-04T18:15:59.806Z,1.94
2023-08-04T18:18:32.322Z,2.05
2023-08-04T18:21:04.331Z,2.13
2023-08-04T18:23:36.536Z,2.10
2023-08-04T18:26:08.245Z,2.03
2023-08-04T18:28:43.774Z,1.95
2023-08-04T18:31:38.537Z,2.12
2023-08-04T18:34:39.574Z,2.12
2023-08-04T18:40:43.007Z,2.10
2023-08-04T18:43:25.125Z,1.96
2023-08-04T18:46:10.508Z,2.11
2023-08-04T18:48:47.405Z,1.94
2023-08-04T18:51:34.694Z,1.91
2023-08-04T18:54:15.196Z,2.03
2023-08-04T18:57:13.240Z,2.06
2023-08-04T18:59:47.389Z,2.01
2023-08-04T19:02:49.865Z,2.07
2023-08-04T19:05:35.541Z,2.14
2023-08-04T19:08:32.062Z,2.15
2023-08-04T19:11:07.388Z,2.10
2023-08-04T19:14:30.150Z,2.29
2023-08-04T19:17:05.753Z,2.24
2023-08-04T19:19:37.692Z,2.30
2023-08-04T19:22:11.806Z,2.55
2023-08-04T19:24:43.602Z,2.29
2023-08-04T19:27:15.697Z,2.16
2023-08-04T19:29:49.016Z,2.19
2023-08-04T19:32:30.712Z,2.37
2023-08-04T19:35:02.691Z,2.28
2023-08-04T19:37:45.679Z,2.35
2023-08-04T19:40:23.828Z,2.30
2023-08-04T19:43:06.643Z,2.13
2023-08-04T19:45:47.079Z,2.12
2023-08-04T20:03:34.409Z,2.31
2023-08-04T20:16:24.874Z,2.18
2023-08-04T20:26:43.817Z,2.43
2023-08-04T20:29:56.058Z,2.28
2023-08-04T20:32:32.871Z,2.64
2023-08-04T20:35:23.620Z,2.55
2023-08-04T20:38:56.732Z,2.31
2023-08-04T20:41:34.001Z,2.60
2023-08-04T20:44:10.534Z,2.45
2023-08-04T20:47:55.071Z,2.61
2023-08-04T20:50:58.447Z,2.35
2023-08-04T20:53:33.188Z,2.27
2023-08-04T20:56:06.166Z,2.41
2023-08-04T20:58:55.979Z,2.26
2023-08-04T21:29:55.818Z,2.40
2023-08-04T21:33:03.917Z,2.32
2023-08-04T21:36:10.437Z,1.94
2023-08-04T21:50:54.703Z,1.95
2023-08-04T21:57:02.494Z,1.94
2023-08-04T22:00:18.669Z,2.01
2023-08-04T22:06:56.978Z,2.05
2023-08-04T22:09:33.683Z,1.87
2023-08-04T22:12:47.234Z,1.96
2023-08-04T22:15:29.300Z,1.97
2023-08-04T22:18:12.244Z,1.87
2023-08-04T22:20:56.554Z,2.02
2023-08-04T22:24:10.775Z,1.93
2023-08-04T22:26:51.808Z,2.17
2023-08-04T22:29:52.708Z,2.11
2023-08-04T22:32:27.584Z,1.80
2023-08-04T22:34:59.221Z,1.70
2023-08-04T22:37:30.852Z,1.80
2023-08-04T22:40:02.510Z,1.55
2023-08-04T22:42:34.274Z,1.81
2023-08-04T22:45:06.885Z,1.83
2023-08-04T22:47:38.824Z,1.84
2023-08-04T22:50:10.589Z,1.91
2023-08-04T22:52:43.554Z,1.85
2023-08-04T22:55:16.300Z,1.94
2023-08-04T22:57:48.488Z,1.91
2023-08-04T23:00:20.219Z,1.97
2023-08-04T23:02:51.737Z,1.90
2023-08-04T23:05:23.530Z,1.98
2023-08-04T23:07:55.120Z,2.11
2023-08-04T23:10:27.014Z,1.82
2023-08-04T23:12:58.575Z,1.89
2023-08-04T23:15:30.154Z,2.01
2023-08-04T23:18:01.787Z,1.85
2023-08-04T23:20:33.406Z,1.97
2023-08-04T23:23:04.997Z,2.04
2023-08-04T23:25:37.615Z,2.01
2023-08-04T23:28:09.157Z,2.11
2023-08-04T23:30:48.118Z,1.84
2023-08-04T23:33:19.704Z,1.79
2023-08-04T23:35:56.920Z,1.65
2023-08-04T23:38:28.594Z,1.67
2023-08-04T23:41:02.505Z,1.63
2023-08-04T23:43:34.430Z,1.74
2023-08-04T23:46:06.128Z,1.51
2023-08-04T23:48:37.858Z,1.57
2023-08-04T23:51:09.603Z,1.43
2023-08-04T23:53:41.197Z,1.58
2023-08-04T23:56:12.839Z,1.53
2023-08-04T23:58:44.433Z,1.42
